CMI weather

University of Illinois Willard Airport
Champaign/Urbana, Illinois, United States

Public forecast

Using degrees Fahrenheit for public forecast. Weather courtesy of forecast.io.

METAR (pilot weather report)

Retrieved 2019/07/18 03:53 UTC (41 minutes ago):

KCMI 180353Z 18004KT 10SM CLR 25/23 A2991 RMK AO2 SLP122 T02500233

TAF (pilot weather forecast)

Forecast is more than 12 hours old.

Retrieved 2019/07/17 00:39 UTC (1 day ago):

TAF KCMI 172336Z 1800/1824 26006KT P6SM SCT040 BKN110 OVC150 FM180100 20005KT P6SM VCSH SCT040 BKN100 OVC150 FM180400 18005KT P6SM SCT100 BKN200 FM181000 19008KT 6SM BR SCT250 FM181500 21012G18KT P6SM FEW040 SCT250